Terminal Aerodrome Forecast
Issued by NWS

Home | Current Version | Previous Version | Graphics & Text | Print | Product List | Glossary On
Versions: 1 2 3 4 5 6 7 8 9 10 11 12 13
000
FTUS45 KGGW 242321
TAFOLF
TAF
KOLF 242321Z 2500/2524 26009KT P6SM SCT060
     FM251200 03004KT P6SM -SHRA OVC060
     FM251800 35010KT P6SM -SHRA BKN017=

USA.gov is the U.S. government's official web portal to all federal, state and local government web resources and services.